sensor_id;sensor_type;location;lat;lon;timestamp;temperature;humidity
37874;DHT22;23709;48.078;11.684;2023-05-13T00:00:04;10.30;99.90
37874;DHT22;23709;48.078;11.684;2023-05-13T00:02:37;10.30;99.90
37874;DHT22;23709;48.078;11.684;2023-05-13T00:05:09;10.40;99.90
37874;DHT22;23709;48.078;11.684;2023-05-13T00:07:41;10.30;99.90
37874;DHT22;23709;48.078;11.684;2023-05-13T00:10:13;10.30;99.90
37874;DHT22;23709;48.078;11.684;2023-05-13T00:12:47;10.20;99.90
37874;DHT22;23709;48.078;11.684;2023-05-13T00:15:20;10.20;99.90
37874;DHT22;23709;48.078;11.684;2023-05-13T00:17:52;10.20;99.90
37874;DHT22;23709;48.078;11.684;2023-05-13T00:20:25;10.20;99.90
37874;DHT22;23709;48.078;11.684;2023-05-13T00:22:57;10.30;99.90
37874;DHT22;23709;48.078;11.684;2023-05-13T00:25:29;10.20;99.90
37874;DHT22;23709;48.078;11.684;2023-05-13T00:28:02;10.20;99.90
37874;DHT22;23709;48.078;11.684;2023-05-13T00:30:34;10.30;99.90
37874;DHT22;23709;48.078;11.684;2023-05-13T00:33:06;10.20;99.90
37874;DHT22;23709;48.078;11.684;2023-05-13T00:35:39;10.20;99.90
37874;DHT22;23709;48.078;11.684;2023-05-13T00:38:12;10.20;99.90
37874;DHT22;23709;48.078;11.684;2023-05-13T00:40:44;10.20;99.90
37874;DHT22;23709;48.078;11.684;2023-05-13T00:43:17;10.20;99.90
37874;DHT22;23709;48.078;11.684;2023-05-13T00:45:50;10.20;99.90
37874;DHT22;23709;48.078;11.684;2023-05-13T00:48:23;10.20;99.90
37874;DHT22;23709;48.078;11.684;2023-05-13T00:50:55;10.20;99.90
37874;DHT22;23709;48.078;11.684;2023-05-13T00:53:28;10.20;99.90
37874;DHT22;23709;48.078;11.684;2023-05-13T00:56:02;10.20;99.90
37874;DHT22;23709;48.078;11.684;2023-05-13T00:58:34;10.20;99.90
37874;DHT22;23709;48.078;11.684;2023-05-13T01:04:39;10.20;99.90
37874;DHT22;23709;48.078;11.684;2023-05-13T01:10:25;10.20;99.90
37874;DHT22;23709;48.078;11.684;2023-05-13T01:13:04;10.10;99.90
37874;DHT22;23709;48.078;11.684;2023-05-13T01:15:42;10.10;99.90
37874;DHT22;23709;48.078;11.684;2023-05-13T01:18:24;10.20;99.90
37874;DHT22;23709;48.078;11.684;2023-05-13T01:21:00;10.20;99.90
37874;DHT22;23709;48.078;11.684;2023-05-13T01:23:35;10.10;99.90
37874;DHT22;23709;48.078;11.684;2023-05-13T01:26:07;10.10;99.90
37874;DHT22;23709;48.078;11.684;2023-05-13T01:28:40;10.10;99.90
37874;DHT22;23709;48.078;11.684;2023-05-13T01:31:13;10.10;99.90
37874;DHT22;23709;48.078;11.684;2023-05-13T01:33:45;10.10;99.90
37874;DHT22;23709;48.078;11.684;2023-05-13T01:36:19;10.10;99.90
37874;DHT22;23709;48.078;11.684;2023-05-13T01:38:52;10.00;99.90
37874;DHT22;23709;48.078;11.684;2023-05-13T01:41:26;10.00;99.90
37874;DHT22;23709;48.078;11.684;2023-05-13T01:43:59;10.00;99.90
37874;DHT22;23709;48.078;11.684;2023-05-13T01:46:32;10.00;99.90
37874;DHT22;23709;48.078;11.684;2023-05-13T01:49:04;10.10;99.90
37874;DHT22;23709;48.078;11.684;2023-05-13T01:51:38;10.10;99.90
37874;DHT22;23709;48.078;11.684;2023-05-13T01:54:12;10.10;99.90
37874;DHT22;23709;48.078;11.684;2023-05-13T01:56:50;10.00;99.90
37874;DHT22;23709;48.078;11.684;2023-05-13T01:59:24;10.00;99.90
37874;DHT22;23709;48.078;11.684;2023-05-13T02:01:57;10.00;99.90
37874;DHT22;23709;48.078;11.684;2023-05-13T02:04:30;10.00;99.90
37874;DHT22;23709;48.078;11.684;2023-05-13T02:07:03;10.00;99.90
37874;DHT22;23709;48.078;11.684;2023-05-13T02:09:37;9.90;99.90
37874;DHT22;23709;48.078;11.684;2023-05-13T02:12:10;10.00;99.90
37874;DHT22;23709;48.078;11.684;2023-05-13T02:14:43;10.00;99.90
37874;DHT22;23709;48.078;11.684;2023-05-13T02:17:15;10.00;99.90
37874;DHT22;23709;48.078;11.684;2023-05-13T02:19:47;10.00;99.90
37874;DHT22;23709;48.078;11.684;2023-05-13T02:22:19;10.00;99.90
37874;DHT22;23709;48.078;11.684;2023-05-13T02:24:51;10.00;99.90
37874;DHT22;23709;48.078;11.684;2023-05-13T02:27:24;10.00;99.90
37874;DHT22;23709;48.078;11.684;2023-05-13T02:29:57;10.00;99.90
37874;DHT22;23709;48.078;11.684;2023-05-13T02:32:30;10.00;99.90
37874;DHT22;23709;48.078;11.684;2023-05-13T02:35:02;10.00;99.90
37874;DHT22;23709;48.078;11.684;2023-05-13T02:37:35;10.00;99.90
37874;DHT22;23709;48.078;11.684;2023-05-13T02:40:08;10.00;99.90
37874;DHT22;23709;48.078;11.684;2023-05-13T02:42:41;9.90;99.90
37874;DHT22;23709;48.078;11.684;2023-05-13T02:45:15;9.90;99.90
37874;DHT22;23709;48.078;11.684;2023-05-13T02:47:53;9.90;99.90
37874;DHT22;23709;48.078;11.684;2023-05-13T02:50:26;9.90;99.90
37874;DHT22;23709;48.078;11.684;2023-05-13T02:52:59;9.80;99.90
37874;DHT22;23709;48.078;11.684;2023-05-13T02:55:32;9.80;99.90
37874;DHT22;23709;48.078;11.684;2023-05-13T02:58:04;9.90;99.90
37874;DHT22;23709;48.078;11.684;2023-05-13T03:00:37;9.90;99.90
37874;DHT22;23709;48.078;11.684;2023-05-13T03:03:09;9.90;99.90
37874;DHT22;23709;48.078;11.684;2023-05-13T03:05:42;9.80;99.90
37874;DHT22;23709;48.078;11.684;2023-05-13T03:08:14;9.90;99.90
37874;DHT22;23709;48.078;11.684;2023-05-13T03:10:47;9.90;99.90
37874;DHT22;23709;48.078;11.684;2023-05-13T03:13:19;9.90;99.90
37874;DHT22;23709;48.078;11.684;2023-05-13T03:15:52;9.90;99.90
37874;DHT22;23709;48.078;11.684;2023-05-13T03:18:24;9.90;99.90
37874;DHT22;23709;48.078;11.684;2023-05-13T03:20:57;9.90;99.90
37874;DHT22;23709;48.078;11.684;2023-05-13T03:23:32;9.90;99.90
37874;DHT22;23709;48.078;11.684;2023-05-13T03:26:05;9.90;99.90
37874;DHT22;23709;48.078;11.684;2023-05-13T03:28:38;9.90;99.90
37874;DHT22;23709;48.078;11.684;2023-05-13T03:31:11;9.90;99.90
37874;DHT22;23709;48.078;11.684;2023-05-13T03:33:44;9.90;99.90
37874;DHT22;23709;48.078;11.684;2023-05-13T03:36:17;9.90;99.90
37874;DHT22;23709;48.078;11.684;2023-05-13T03:38:49;9.90;99.90
37874;DHT22;23709;48.078;11.684;2023-05-13T03:41:22;9.90;99.90
37874;DHT22;23709;48.078;11.684;2023-05-13T03:43:55;9.90;99.90
37874;DHT22;23709;48.078;11.684;2023-05-13T03:46:27;9.90;99.90
37874;DHT22;23709;48.078;11.684;2023-05-13T03:49:00;9.90;99.90
37874;DHT22;23709;48.078;11.684;2023-05-13T03:51:33;9.90;99.90
37874;DHT22;23709;48.078;11.684;2023-05-13T03:54:06;9.90;99.90
37874;DHT22;23709;48.078;11.684;2023-05-13T03:56:39;9.90;99.90
37874;DHT22;23709;48.078;11.684;2023-05-13T03:59:11;9.90;99.90
37874;DHT22;23709;48.078;11.684;2023-05-13T04:01:43;9.90;99.90
37874;DHT22;23709;48.078;11.684;2023-05-13T04:04:16;9.90;99.90
37874;DHT22;23709;48.078;11.684;2023-05-13T04:06:48;9.90;99.90
37874;DHT22;23709;48.078;11.684;2023-05-13T04:09:21;9.90;99.90
37874;DHT22;23709;48.078;11.684;2023-05-13T04:11:54;9.90;99.90
37874;DHT22;23709;48.078;11.684;2023-05-13T04:14:26;9.90;99.90
37874;DHT22;23709;48.078;11.684;2023-05-13T04:16:59;9.90;99.90
37874;DHT22;23709;48.078;11.684;2023-05-13T04:19:31;9.90;99.90
37874;DHT22;23709;48.078;11.684;2023-05-13T04:22:03;9.80;99.90
37874;DHT22;23709;48.078;11.684;2023-05-13T04:24:36;9.80;99.90
37874;DHT22;23709;48.078;11.684;2023-05-13T04:27:08;9.80;99.90
37874;DHT22;23709;48.078;11.684;2023-05-13T04:29:41;9.80;99.90
37874;DHT22;23709;48.078;11.684;2023-05-13T04:32:14;9.80;99.90
37874;DHT22;23709;48.078;11.684;2023-05-13T04:34:54;9.80;99.90
37874;DHT22;23709;48.078;11.684;2023-05-13T04:37:29;9.80;99.90
37874;DHT22;23709;48.078;11.684;2023-05-13T04:40:05;9.80;99.90
37874;DHT22;23709;48.078;11.684;2023-05-13T04:42:39;9.80;99.90
37874;DHT22;23709;48.078;11.684;2023-05-13T04:45:12;9.80;99.90
37874;DHT22;23709;48.078;11.684;2023-05-13T04:47:45;9.80;99.90
37874;DHT22;23709;48.078;11.684;2023-05-13T04:50:19;9.70;99.90
37874;DHT22;23709;48.078;11.684;2023-05-13T04:52:53;9.70;99.90
37874;DHT22;23709;48.078;11.684;2023-05-13T04:55:27;9.80;99.90
37874;DHT22;23709;48.078;11.684;2023-05-13T04:58:00;9.80;99.90
37874;DHT22;23709;48.078;11.684;2023-05-13T05:00:33;9.80;99.90
37874;DHT22;23709;48.078;11.684;2023-05-13T05:03:05;9.80;99.90
37874;DHT22;23709;48.078;11.684;2023-05-13T05:05:38;9.80;99.90
37874;DHT22;23709;48.078;11.684;2023-05-13T05:08:12;9.80;99.90
37874;DHT22;23709;48.078;11.684;2023-05-13T05:10:44;9.80;99.90
37874;DHT22;23709;48.078;11.684;2023-05-13T05:13:18;9.80;99.90
37874;DHT22;23709;48.078;11.684;2023-05-13T05:15:50;9.80;99.90
37874;DHT22;23709;48.078;11.684;2023-05-13T05:18:23;9.80;99.90
37874;DHT22;23709;48.078;11.684;2023-05-13T05:20:56;9.80;99.90
37874;DHT22;23709;48.078;11.684;2023-05-13T05:23:30;9.80;99.90
37874;DHT22;23709;48.078;11.684;2023-05-13T05:26:04;9.90;99.90
37874;DHT22;23709;48.078;11.684;2023-05-13T05:28:44;9.90;99.90
37874;DHT22;23709;48.078;11.684;2023-05-13T05:31:17;9.80;99.90
37874;DHT22;23709;48.078;11.684;2023-05-13T05:33:52;9.80;99.90
37874;DHT22;23709;48.078;11.684;2023-05-13T05:36:24;9.90;99.90
37874;DHT22;23709;48.078;11.684;2023-05-13T05:38:56;9.80;99.90
37874;DHT22;23709;48.078;11.684;2023-05-13T05:41:37;9.80;99.90
37874;DHT22;23709;48.078;11.684;2023-05-13T05:44:10;9.90;99.90
37874;DHT22;23709;48.078;11.684;2023-05-13T05:46:45;9.80;99.90
37874;DHT22;23709;48.078;11.684;2023-05-13T05:49:17;9.90;99.90
37874;DHT22;23709;48.078;11.684;2023-05-13T05:51:50;9.90;99.90
37874;DHT22;23709;48.078;11.684;2023-05-13T05:54:23;9.80;99.90
37874;DHT22;23709;48.078;11.684;2023-05-13T05:56:55;9.80;99.90
37874;DHT22;23709;48.078;11.684;2023-05-13T05:59:28;9.80;99.90
37874;DHT22;23709;48.078;11.684;2023-05-13T06:02:00;9.80;99.90
37874;DHT22;23709;48.078;11.684;2023-05-13T06:04:33;9.90;99.90
37874;DHT22;23709;48.078;11.684;2023-05-13T06:07:07;9.90;99.90
37874;DHT22;23709;48.078;11.684;2023-05-13T06:09:40;9.90;99.90
37874;DHT22;23709;48.078;11.684;2023-05-13T06:12:12;9.90;99.90
37874;DHT22;23709;48.078;11.684;2023-05-13T06:14:45;9.90;99.90
37874;DHT22;23709;48.078;11.684;2023-05-13T06:17:17;9.90;99.90
37874;DHT22;23709;48.078;11.684;2023-05-13T06:19:50;9.90;99.90
37874;DHT22;23709;48.078;11.684;2023-05-13T06:22:22;9.90;99.90
37874;DHT22;23709;48.078;11.684;2023-05-13T06:24:56;9.90;99.90
37874;DHT22;23709;48.078;11.684;2023-05-13T06:27:28;9.90;99.90
37874;DHT22;23709;48.078;11.684;2023-05-13T06:30:00;9.90;99.90
37874;DHT22;23709;48.078;11.684;2023-05-13T06:32:33;9.90;99.90
37874;DHT22;23709;48.078;11.684;2023-05-13T06:35:06;10.00;99.90
37874;DHT22;23709;48.078;11.684;2023-05-13T06:37:40;10.00;99.90
37874;DHT22;23709;48.078;11.684;2023-05-13T06:40:13;9.90;99.90
37874;DHT22;23709;48.078;11.684;2023-05-13T06:42:47;10.00;99.90
37874;DHT22;23709;48.078;11.684;2023-05-13T06:45:25;10.00;99.90
37874;DHT22;23709;48.078;11.684;2023-05-13T06:47:58;10.00;99.90
37874;DHT22;23709;48.078;11.684;2023-05-13T06:50:30;10.00;99.90
37874;DHT22;23709;48.078;11.684;2023-05-13T06:53:03;10.00;99.90
37874;DHT22;23709;48.078;11.684;2023-05-13T06:55:36;10.00;99.90
37874;DHT22;23709;48.078;11.684;2023-05-13T06:58:12;10.00;99.90
37874;DHT22;23709;48.078;11.684;2023-05-13T07:00:45;10.00;99.90
37874;DHT22;23709;48.078;11.684;2023-05-13T07:03:18;10.00;99.90
37874;DHT22;23709;48.078;11.684;2023-05-13T07:05:51;9.90;99.90
37874;DHT22;23709;48.078;11.684;2023-05-13T07:08:23;9.90;99.90
37874;DHT22;23709;48.078;11.684;2023-05-13T07:10:55;10.00;99.90
37874;DHT22;23709;48.078;11.684;2023-05-13T07:13:29;10.00;99.90
37874;DHT22;23709;48.078;11.684;2023-05-13T07:16:04;10.10;99.90
37874;DHT22;23709;48.078;11.684;2023-05-13T07:18:37;10.20;99.90
37874;DHT22;23709;48.078;11.684;2023-05-13T07:21:10;10.10;99.90
37874;DHT22;23709;48.078;11.684;2023-05-13T07:23:42;10.10;99.90
37874;DHT22;23709;48.078;11.684;2023-05-13T07:26:15;10.10;99.90
37874;DHT22;23709;48.078;11.684;2023-05-13T07:28:48;10.10;99.90
37874;DHT22;23709;48.078;11.684;2023-05-13T07:31:20;10.10;99.90
37874;DHT22;23709;48.078;11.684;2023-05-13T07:33:52;10.20;99.90
37874;DHT22;23709;48.078;11.684;2023-05-13T07:36:25;10.20;99.90
37874;DHT22;23709;48.078;11.684;2023-05-13T07:38:58;10.20;99.90
37874;DHT22;23709;48.078;11.684;2023-05-13T07:41:35;10.20;99.90
37874;DHT22;23709;48.078;11.684;2023-05-13T07:44:08;10.20;99.90
37874;DHT22;23709;48.078;11.684;2023-05-13T07:46:45;10.20;99.90
37874;DHT22;23709;48.078;11.684;2023-05-13T07:49:20;10.30;99.90
37874;DHT22;23709;48.078;11.684;2023-05-13T07:51:52;10.20;99.90
37874;DHT22;23709;48.078;11.684;2023-05-13T07:54:25;10.20;99.90
37874;DHT22;23709;48.078;11.684;2023-05-13T07:56:58;10.30;99.90
37874;DHT22;23709;48.078;11.684;2023-05-13T07:59:30;10.30;99.90
37874;DHT22;23709;48.078;11.684;2023-05-13T08:02:02;10.30;99.90
37874;DHT22;23709;48.078;11.684;2023-05-13T08:04:35;10.40;99.90
37874;DHT22;23709;48.078;11.684;2023-05-13T08:07:09;10.40;99.90
37874;DHT22;23709;48.078;11.684;2023-05-13T08:09:42;10.30;99.90
37874;DHT22;23709;48.078;11.684;2023-05-13T08:12:16;10.40;99.90
37874;DHT22;23709;48.078;11.684;2023-05-13T08:14:49;10.40;99.90
37874;DHT22;23709;48.078;11.684;2023-05-13T08:17:21;10.40;99.90
37874;DHT22;23709;48.078;11.684;2023-05-13T08:19:54;10.40;99.90
37874;DHT22;23709;48.078;11.684;2023-05-13T08:22:30;10.40;99.90
37874;DHT22;23709;48.078;11.684;2023-05-13T08:25:02;10.50;99.90
37874;DHT22;23709;48.078;11.684;2023-05-13T08:27:35;10.50;99.90
37874;DHT22;23709;48.078;11.684;2023-05-13T08:30:08;10.50;99.90
37874;DHT22;23709;48.078;11.684;2023-05-13T08:32:40;10.50;99.90
37874;DHT22;23709;48.078;11.684;2023-05-13T08:35:13;10.60;99.90
37874;DHT22;23709;48.078;11.684;2023-05-13T08:37:45;10.60;99.90
37874;DHT22;23709;48.078;11.684;2023-05-13T08:40:17;10.60;99.90
37874;DHT22;23709;48.078;11.684;2023-05-13T08:42:50;10.60;99.90
37874;DHT22;23709;48.078;11.684;2023-05-13T08:45:27;10.70;99.90
37874;DHT22;23709;48.078;11.684;2023-05-13T08:48:01;10.90;99.90
37874;DHT22;23709;48.078;11.684;2023-05-13T08:50:33;10.90;99.90
37874;DHT22;23709;48.078;11.684;2023-05-13T08:53:06;11.00;99.90
37874;DHT22;23709;48.078;11.684;2023-05-13T08:55:39;11.10;99.90
37874;DHT22;23709;48.078;11.684;2023-05-13T08:58:14;11.20;99.90
37874;DHT22;23709;48.078;11.684;2023-05-13T09:00:48;11.30;99.90
37874;DHT22;23709;48.078;11.684;2023-05-13T09:03:21;11.40;99.90
37874;DHT22;23709;48.078;11.684;2023-05-13T09:06:02;11.40;99.90
37874;DHT22;23709;48.078;11.684;2023-05-13T09:08:34;11.40;99.90
37874;DHT22;23709;48.078;11.684;2023-05-13T09:11:07;11.40;99.90
37874;DHT22;23709;48.078;11.684;2023-05-13T09:13:43;11.40;99.90
37874;DHT22;23709;48.078;11.684;2023-05-13T09:16:16;11.40;99.90
37874;DHT22;23709;48.078;11.684;2023-05-13T09:18:48;11.40;99.90
37874;DHT22;23709;48.078;11.684;2023-05-13T09:21:29;11.50;99.90
37874;DHT22;23709;48.078;11.684;2023-05-13T09:26:42;11.30;99.90
37874;DHT22;23709;48.078;11.684;2023-05-13T09:29:22;11.20;99.90
37874;DHT22;23709;48.078;11.684;2023-05-13T09:31:59;11.20;99.90
37874;DHT22;23709;48.078;11.684;2023-05-13T09:34:33;11.20;99.90
37874;DHT22;23709;48.078;11.684;2023-05-13T09:37:07;11.30;99.90
37874;DHT22;23709;48.078;11.684;2023-05-13T09:39:40;11.30;99.90
37874;DHT22;23709;48.078;11.684;2023-05-13T09:42:17;11.20;99.90
37874;DHT22;23709;48.078;11.684;2023-05-13T09:44:50;11.20;99.90
37874;DHT22;23709;48.078;11.684;2023-05-13T09:47:23;11.10;99.90
37874;DHT22;23709;48.078;11.684;2023-05-13T09:49:55;11.10;99.90
37874;DHT22;23709;48.078;11.684;2023-05-13T09:52:29;11.20;99.90
37874;DHT22;23709;48.078;11.684;2023-05-13T09:55:05;11.20;99.90
37874;DHT22;23709;48.078;11.684;2023-05-13T09:57:39;11.40;99.90
37874;DHT22;23709;48.078;11.684;2023-05-13T10:00:12;11.40;99.90
37874;DHT22;23709;48.078;11.684;2023-05-13T10:03:00;11.50;99.90
37874;DHT22;23709;48.078;11.684;2023-05-13T10:05:33;11.60;99.90
37874;DHT22;23709;48.078;11.684;2023-05-13T10:08:09;11.70;99.90
37874;DHT22;23709;48.078;11.684;2023-05-13T10:10:43;11.70;99.90
37874;DHT22;23709;48.078;11.684;2023-05-13T10:13:22;11.70;99.90
37874;DHT22;23709;48.078;11.684;2023-05-13T10:15:54;11.70;99.90
37874;DHT22;23709;48.078;11.684;2023-05-13T10:18:27;11.70;99.90
37874;DHT22;23709;48.078;11.684;2023-05-13T10:21:01;11.70;99.90
37874;DHT22;23709;48.078;11.684;2023-05-13T10:23:37;11.60;99.90
37874;DHT22;23709;48.078;11.684;2023-05-13T10:26:09;11.50;99.90
37874;DHT22;23709;48.078;11.684;2023-05-13T10:28:42;11.50;99.90
37874;DHT22;23709;48.078;11.684;2023-05-13T10:31:16;11.50;99.90
37874;DHT22;23709;48.078;11.684;2023-05-13T10:33:51;11.70;99.90
37874;DHT22;23709;48.078;11.684;2023-05-13T10:36:57;11.70;99.90
37874;DHT22;23709;48.078;11.684;2023-05-13T10:42:42;11.70;99.90
37874;DHT22;23709;48.078;11.684;2023-05-13T10:45:16;11.80;99.90
37874;DHT22;23709;48.078;11.684;2023-05-13T10:47:49;11.90;99.90
37874;DHT22;23709;48.078;11.684;2023-05-13T10:50:24;12.00;99.90
37874;DHT22;23709;48.078;11.684;2023-05-13T10:52:57;12.10;99.90
37874;DHT22;23709;48.078;11.684;2023-05-13T10:55:30;12.10;99.90
37874;DHT22;23709;48.078;11.684;2023-05-13T10:58:14;12.20;99.90
37874;DHT22;23709;48.078;11.684;2023-05-13T11:00:47;12.30;99.90
37874;DHT22;23709;48.078;11.684;2023-05-13T11:06:18;12.50;99.90
37874;DHT22;23709;48.078;11.684;2023-05-13T11:08:52;12.60;99.90
37874;DHT22;23709;48.078;11.684;2023-05-13T11:11:31;12.60;99.90
37874;DHT22;23709;48.078;11.684;2023-05-13T11:14:19;12.60;99.90
37874;DHT22;23709;48.078;11.684;2023-05-13T11:19:38;12.50;99.90
37874;DHT22;23709;48.078;11.684;2023-05-13T11:22:19;12.40;99.90
37874;DHT22;23709;48.078;11.684;2023-05-13T11:25:06;12.30;99.90
37874;DHT22;23709;48.078;11.684;2023-05-13T11:27:41;12.30;99.90
37874;DHT22;23709;48.078;11.684;2023-05-13T11:30:26;12.30;99.90
37874;DHT22;23709;48.078;11.684;2023-05-13T11:32:59;12.30;99.90
37874;DHT22;23709;48.078;11.684;2023-05-13T11:35:33;12.30;99.90
37874;DHT22;23709;48.078;11.684;2023-05-13T11:38:06;12.30;99.90
37874;DHT22;23709;48.078;11.684;2023-05-13T11:40:39;12.40;99.90
37874;DHT22;23709;48.078;11.684;2023-05-13T11:43:18;12.40;99.90
37874;DHT22;23709;48.078;11.684;2023-05-13T11:45:52;12.50;99.90
37874;DHT22;23709;48.078;11.684;2023-05-13T11:48:25;12.50;99.90
37874;DHT22;23709;48.078;11.684;2023-05-13T11:50:58;12.40;99.90
37874;DHT22;23709;48.078;11.684;2023-05-13T11:53:30;12.50;99.90
37874;DHT22;23709;48.078;11.684;2023-05-13T11:56:08;12.60;99.90
37874;DHT22;23709;48.078;11.684;2023-05-13T11:58:41;12.70;99.90
37874;DHT22;23709;48.078;11.684;2023-05-13T12:01:14;12.80;99.90
37874;DHT22;23709;48.078;11.684;2023-05-13T12:03:46;12.90;99.90
37874;DHT22;23709;48.078;11.684;2023-05-13T12:06:22;12.90;99.90
37874;DHT22;23709;48.078;11.684;2023-05-13T12:08:54;12.80;99.90
37874;DHT22;23709;48.078;11.684;2023-05-13T12:11:27;12.80;99.90
37874;DHT22;23709;48.078;11.684;2023-05-13T12:14:00;12.90;99.90
37874;DHT22;23709;48.078;11.684;2023-05-13T12:16:32;12.80;99.90
37874;DHT22;23709;48.078;11.684;2023-05-13T12:19:05;12.90;99.90
37874;DHT22;23709;48.078;11.684;2023-05-13T12:21:38;12.90;99.90
37874;DHT22;23709;48.078;11.684;2023-05-13T12:24:20;12.90;99.90
37874;DHT22;23709;48.078;11.684;2023-05-13T12:27:03;12.90;99.90
37874;DHT22;23709;48.078;11.684;2023-05-13T12:29:40;12.90;99.90
37874;DHT22;23709;48.078;11.684;2023-05-13T12:32:15;12.90;99.90
37874;DHT22;23709;48.078;11.684;2023-05-13T12:34:50;12.90;99.90
37874;DHT22;23709;48.078;11.684;2023-05-13T12:37:23;12.90;99.90
37874;DHT22;23709;48.078;11.684;2023-05-13T12:40:10;12.90;99.90
37874;DHT22;23709;48.078;11.684;2023-05-13T12:42:44;13.10;99.90
37874;DHT22;23709;48.078;11.684;2023-05-13T12:45:16;13.10;99.90
37874;DHT22;23709;48.078;11.684;2023-05-13T12:47:50;13.20;99.90
37874;DHT22;23709;48.078;11.684;2023-05-13T12:50:23;13.20;99.90
37874;DHT22;23709;48.078;11.684;2023-05-13T12:52:55;13.20;99.90
37874;DHT22;23709;48.078;11.684;2023-05-13T12:55:31;13.20;99.90
37874;DHT22;23709;48.078;11.684;2023-05-13T12:58:06;13.20;99.90
37874;DHT22;23709;48.078;11.684;2023-05-13T13:00:38;13.20;99.90
37874;DHT22;23709;48.078;11.684;2023-05-13T13:03:11;13.20;99.90
37874;DHT22;23709;48.078;11.684;2023-05-13T13:05:44;13.10;99.90
37874;DHT22;23709;48.078;11.684;2023-05-13T13:08:17;13.10;99.90
37874;DHT22;23709;48.078;11.684;2023-05-13T13:10:50;13.10;99.90
37874;DHT22;23709;48.078;11.684;2023-05-13T13:13:23;13.10;99.90
37874;DHT22;23709;48.078;11.684;2023-05-13T13:15:55;13.10;99.90
37874;DHT22;23709;48.078;11.684;2023-05-13T13:18:27;13.10;99.90
37874;DHT22;23709;48.078;11.684;2023-05-13T13:21:00;13.10;99.90
37874;DHT22;23709;48.078;11.684;2023-05-13T13:23:33;13.00;99.90
37874;DHT22;23709;48.078;11.684;2023-05-13T13:26:05;13.00;99.90
37874;DHT22;23709;48.078;11.684;2023-05-13T13:28:38;13.00;99.90
37874;DHT22;23709;48.078;11.684;2023-05-13T13:31:11;13.00;99.90
37874;DHT22;23709;48.078;11.684;2023-05-13T13:33:43;13.00;99.90
37874;DHT22;23709;48.078;11.684;2023-05-13T13:36:18;13.00;99.90
37874;DHT22;23709;48.078;11.684;2023-05-13T13:38:51;13.20;99.90
37874;DHT22;23709;48.078;11.684;2023-05-13T13:41:23;13.30;99.90
37874;DHT22;23709;48.078;11.684;2023-05-13T13:43:56;13.30;99.90
37874;DHT22;23709;48.078;11.684;2023-05-13T13:46:29;13.50;99.90
37874;DHT22;23709;48.078;11.684;2023-05-13T13:49:04;13.70;99.90
37874;DHT22;23709;48.078;11.684;2023-05-13T13:51:54;13.70;99.90
37874;DHT22;23709;48.078;11.684;2023-05-13T13:54:27;13.70;99.90
37874;DHT22;23709;48.078;11.684;2023-05-13T13:56:59;13.80;99.90
37874;DHT22;23709;48.078;11.684;2023-05-13T13:59:31;13.80;99.90
37874;DHT22;23709;48.078;11.684;2023-05-13T14:02:04;13.80;99.90
37874;DHT22;23709;48.078;11.684;2023-05-13T14:04:36;13.80;99.90
37874;DHT22;23709;48.078;11.684;2023-05-13T14:07:12;13.90;99.90
37874;DHT22;23709;48.078;11.684;2023-05-13T14:09:45;13.80;99.90
37874;DHT22;23709;48.078;11.684;2023-05-13T14:12:18;13.90;99.90
37874;DHT22;23709;48.078;11.684;2023-05-13T14:14:50;13.80;99.90
37874;DHT22;23709;48.078;11.684;2023-05-13T14:17:22;13.80;99.90
37874;DHT22;23709;48.078;11.684;2023-05-13T14:19:55;13.80;99.90
37874;DHT22;23709;48.078;11.684;2023-05-13T14:22:30;13.80;99.90
37874;DHT22;23709;48.078;11.684;2023-05-13T14:25:03;13.80;99.90
37874;DHT22;23709;48.078;11.684;2023-05-13T14:27:35;13.90;99.90
37874;DHT22;23709;48.078;11.684;2023-05-13T14:30:11;13.90;99.90
37874;DHT22;23709;48.078;11.684;2023-05-13T14:32:43;14.00;99.90
37874;DHT22;23709;48.078;11.684;2023-05-13T14:35:16;14.00;99.90
37874;DHT22;23709;48.078;11.684;2023-05-13T14:37:49;14.10;99.90
37874;DHT22;23709;48.078;11.684;2023-05-13T14:40:22;14.10;99.90
37874;DHT22;23709;48.078;11.684;2023-05-13T14:42:55;14.00;99.90
37874;DHT22;23709;48.078;11.684;2023-05-13T14:45:27;14.20;99.90
37874;DHT22;23709;48.078;11.684;2023-05-13T14:48:00;14.30;99.90
37874;DHT22;23709;48.078;11.684;2023-05-13T14:50:35;14.30;99.90
37874;DHT22;23709;48.078;11.684;2023-05-13T14:53:07;14.70;99.90
37874;DHT22;23709;48.078;11.684;2023-05-13T14:55:41;15.10;99.90
37874;DHT22;23709;48.078;11.684;2023-05-13T14:58:15;15.50;99.90
37874;DHT22;23709;48.078;11.684;2023-05-13T15:00:47;15.70;99.90
37874;DHT22;23709;48.078;11.684;2023-05-13T15:03:20;16.00;99.90
37874;DHT22;23709;48.078;11.684;2023-05-13T15:05:53;16.30;99.90
37874;DHT22;23709;48.078;11.684;2023-05-13T15:08:26;16.40;99.90
37874;DHT22;23709;48.078;11.684;2023-05-13T15:10:58;16.50;99.90
37874;DHT22;23709;48.078;11.684;2023-05-13T15:13:31;16.70;99.90
37874;DHT22;23709;48.078;11.684;2023-05-13T15:16:06;16.80;99.90
37874;DHT22;23709;48.078;11.684;2023-05-13T15:18:41;16.90;99.90
37874;DHT22;23709;48.078;11.684;2023-05-13T15:21:13;17.00;99.90
37874;DHT22;23709;48.078;11.684;2023-05-13T15:23:49;16.90;99.90
37874;DHT22;23709;48.078;11.684;2023-05-13T15:26:21;16.90;99.00
37874;DHT22;23709;48.078;11.684;2023-05-13T15:28:53;16.70;99.20
37874;DHT22;23709;48.078;11.684;2023-05-13T15:31:26;16.90;99.50
37874;DHT22;23709;48.078;11.684;2023-05-13T15:33:59;16.90;99.30
37874;DHT22;23709;48.078;11.684;2023-05-13T15:36:33;16.80;99.10
37874;DHT22;23709;48.078;11.684;2023-05-13T15:39:08;16.50;99.30
37874;DHT22;23709;48.078;11.684;2023-05-13T15:41:45;16.20;99.90
37874;DHT22;23709;48.078;11.684;2023-05-13T15:44:20;16.10;99.90
37874;DHT22;23709;48.078;11.684;2023-05-13T15:46:53;15.80;99.90
37874;DHT22;23709;48.078;11.684;2023-05-13T15:49:26;15.60;99.90
37874;DHT22;23709;48.078;11.684;2023-05-13T15:51:59;15.50;99.90
37874;DHT22;23709;48.078;11.684;2023-05-13T15:54:32;15.40;99.90
37874;DHT22;23709;48.078;11.684;2023-05-13T15:57:05;15.30;99.90
37874;DHT22;23709;48.078;11.684;2023-05-13T15:59:40;15.20;99.90
37874;DHT22;23709;48.078;11.684;2023-05-13T16:02:13;15.00;99.90
37874;DHT22;23709;48.078;11.684;2023-05-13T16:04:45;15.00;99.90
37874;DHT22;23709;48.078;11.684;2023-05-13T16:07:18;14.90;99.90
37874;DHT22;23709;48.078;11.684;2023-05-13T16:09:51;14.80;99.90
37874;DHT22;23709;48.078;11.684;2023-05-13T16:12:23;14.80;99.90
37874;DHT22;23709;48.078;11.684;2023-05-13T16:14:56;14.70;99.90
37874;DHT22;23709;48.078;11.684;2023-05-13T16:17:29;14.70;99.90